sensor_id;sensor_type;location;lat;lon;timestamp;P1;P2;P0
75946;PMS5003;64628;50.104;14.614;2023-08-12T00:02:17;23;22;
75946;PMS5003;64628;50.104;14.614;2023-08-12T00:04:43;24;24;
75946;PMS5003;64628;50.104;14.614;2023-08-12T00:07:09;25;24;
75946;PMS5003;64628;50.104;14.614;2023-08-12T00:09:34;35;34;
75946;PMS5003;64628;50.104;14.614;2023-08-12T00:11:59;23;21;
75946;PMS5003;64628;50.104;14.614;2023-08-12T00:14:25;23;21;
75946;PMS5003;64628;50.104;14.614;2023-08-12T00:16:50;22;19;
75946;PMS5003;64628;50.104;14.614;2023-08-12T00:19:15;21;20;
75946;PMS5003;64628;50.104;14.614;2023-08-12T00:21:40;20;18;
75946;PMS5003;64628;50.104;14.614;2023-08-12T00:24:06;22;21;
75946;PMS5003;64628;50.104;14.614;2023-08-12T00:26:31;24;20;
75946;PMS5003;64628;50.104;14.614;2023-08-12T00:28:56;19;19;
75946;PMS5003;64628;50.104;14.614;2023-08-12T00:31:21;23;19;
75946;PMS5003;64628;50.104;14.614;2023-08-12T00:33:47;23;23;
75946;PMS5003;64628;50.104;14.614;2023-08-12T00:36:13;18;16;
75946;PMS5003;64628;50.104;14.614;2023-08-12T00:38:39;18;18;
75946;PMS5003;64628;50.104;14.614;2023-08-12T00:41:04;21;21;
75946;PMS5003;64628;50.104;14.614;2023-08-12T00:43:29;22;22;
75946;PMS5003;64628;50.104;14.614;2023-08-12T00:45:54;20;19;
75946;PMS5003;64628;50.104;14.614;2023-08-12T00:48:20;19;19;
75946;PMS5003;64628;50.104;14.614;2023-08-12T00:50:45;19;18;
75946;PMS5003;64628;50.104;14.614;2023-08-12T00:53:11;18;16;
75946;PMS5003;64628;50.104;14.614;2023-08-12T00:55:36;21;19;
75946;PMS5003;64628;50.104;14.614;2023-08-12T00:58:01;21;20;
75946;PMS5003;64628;50.104;14.614;2023-08-12T01:00:26;18;17;
75946;PMS5003;64628;50.104;14.614;2023-08-12T01:02:52;25;25;
75946;PMS5003;64628;50.104;14.614;2023-08-12T01:05:18;17;16;
75946;PMS5003;64628;50.104;14.614;2023-08-12T01:07:43;21;20;
75946;PMS5003;64628;50.104;14.614;2023-08-12T01:10:09;19;19;
75946;PMS5003;64628;50.104;14.614;2023-08-12T01:12:36;21;19;
75946;PMS5003;64628;50.104;14.614;2023-08-12T01:15:01;25;21;
75946;PMS5003;64628;50.104;14.614;2023-08-12T01:17:26;23;23;
75946;PMS5003;64628;50.104;14.614;2023-08-12T01:19:51;21;20;
75946;PMS5003;64628;50.104;14.614;2023-08-12T01:22:16;27;26;
75946;PMS5003;64628;50.104;14.614;2023-08-12T01:24:43;30;29;
75946;PMS5003;64628;50.104;14.614;2023-08-12T01:27:09;23;22;
75946;PMS5003;64628;50.104;14.614;2023-08-12T01:29:34;26;24;
75946;PMS5003;64628;50.104;14.614;2023-08-12T01:32:01;23;23;
75946;PMS5003;64628;50.104;14.614;2023-08-12T01:34:26;23;22;
75946;PMS5003;64628;50.104;14.614;2023-08-12T01:36:51;21;19;
75946;PMS5003;64628;50.104;14.614;2023-08-12T01:39:16;31;28;
75946;PMS5003;64628;50.104;14.614;2023-08-12T01:41:41;19;18;
75946;PMS5003;64628;50.104;14.614;2023-08-12T01:44:06;23;21;
75946;PMS5003;64628;50.104;14.614;2023-08-12T01:46:32;22;21;
75946;PMS5003;64628;50.104;14.614;2023-08-12T01:48:57;22;20;
75946;PMS5003;64628;50.104;14.614;2023-08-12T01:51:23;21;18;
75946;PMS5003;64628;50.104;14.614;2023-08-12T01:53:48;23;22;
75946;PMS5003;64628;50.104;14.614;2023-08-12T01:56:13;25;23;
75946;PMS5003;64628;50.104;14.614;2023-08-12T01:58:38;20;17;
75946;PMS5003;64628;50.104;14.614;2023-08-12T02:01:04;20;18;
75946;PMS5003;64628;50.104;14.614;2023-08-12T02:03:30;24;21;
75946;PMS5003;64628;50.104;14.614;2023-08-12T02:05:55;18;18;
75946;PMS5003;64628;50.104;14.614;2023-08-12T02:08:20;22;20;
75946;PMS5003;64628;50.104;14.614;2023-08-12T02:10:46;22;20;
75946;PMS5003;64628;50.104;14.614;2023-08-12T02:13:11;20;20;
75946;PMS5003;64628;50.104;14.614;2023-08-12T02:15:36;21;19;
75946;PMS5003;64628;50.104;14.614;2023-08-12T02:18:01;20;20;
75946;PMS5003;64628;50.104;14.614;2023-08-12T02:20:27;17;17;
75946;PMS5003;64628;50.104;14.614;2023-08-12T02:22:52;21;21;
75946;PMS5003;64628;50.104;14.614;2023-08-12T02:25:18;18;18;
75946;PMS5003;64628;50.104;14.614;2023-08-12T02:27:43;22;22;
75946;PMS5003;64628;50.104;14.614;2023-08-12T02:30:08;24;20;
75946;PMS5003;64628;50.104;14.614;2023-08-12T02:32:33;27;25;
75946;PMS5003;64628;50.104;14.614;2023-08-12T02:34:59;23;20;
75946;PMS5003;64628;50.104;14.614;2023-08-12T02:37:24;24;21;
75946;PMS5003;64628;50.104;14.614;2023-08-12T02:39:50;30;27;
75946;PMS5003;64628;50.104;14.614;2023-08-12T02:42:16;22;22;
75946;PMS5003;64628;50.104;14.614;2023-08-12T02:44:41;22;20;
75946;PMS5003;64628;50.104;14.614;2023-08-12T02:47:06;17;17;
75946;PMS5003;64628;50.104;14.614;2023-08-12T02:49:32;23;22;
75946;PMS5003;64628;50.104;14.614;2023-08-12T02:51:57;23;20;
75946;PMS5003;64628;50.104;14.614;2023-08-12T02:54:23;18;18;
75946;PMS5003;64628;50.104;14.614;2023-08-12T02:56:49;22;22;
75946;PMS5003;64628;50.104;14.614;2023-08-12T02:59:13;24;24;
75946;PMS5003;64628;50.104;14.614;2023-08-12T03:01:40;21;20;
75946;PMS5003;64628;50.104;14.614;2023-08-12T03:04:05;18;18;
75946;PMS5003;64628;50.104;14.614;2023-08-12T03:06:30;27;24;
75946;PMS5003;64628;50.104;14.614;2023-08-12T03:08:56;25;24;
75946;PMS5003;64628;50.104;14.614;2023-08-12T03:11:21;28;27;
75946;PMS5003;64628;50.104;14.614;2023-08-12T03:13:47;22;21;
75946;PMS5003;64628;50.104;14.614;2023-08-12T03:16:13;25;24;
75946;PMS5003;64628;50.104;14.614;2023-08-12T03:18:38;34;32;
75946;PMS5003;64628;50.104;14.614;2023-08-12T03:21:05;27;26;
75946;PMS5003;64628;50.104;14.614;2023-08-12T03:23:29;28;27;
75946;PMS5003;64628;50.104;14.614;2023-08-12T03:25:55;32;29;
75946;PMS5003;64628;50.104;14.614;2023-08-12T03:28:20;30;28;
75946;PMS5003;64628;50.104;14.614;2023-08-12T03:30:49;36;29;
75946;PMS5003;64628;50.104;14.614;2023-08-12T03:33:11;27;25;
75946;PMS5003;64628;50.104;14.614;2023-08-12T03:35:36;29;27;
75946;PMS5003;64628;50.104;14.614;2023-08-12T03:38:01;29;29;
75946;PMS5003;64628;50.104;14.614;2023-08-12T03:40:27;34;32;
75946;PMS5003;64628;50.104;14.614;2023-08-12T03:42:52;42;38;
75946;PMS5003;64628;50.104;14.614;2023-08-12T03:45:18;42;40;
75946;PMS5003;64628;50.104;14.614;2023-08-12T03:47:44;34;33;
75946;PMS5003;64628;50.104;14.614;2023-08-12T03:50:09;35;32;
75946;PMS5003;64628;50.104;14.614;2023-08-12T03:52:35;35;35;
75946;PMS5003;64628;50.104;14.614;2023-08-12T03:55:00;37;36;
75946;PMS5003;64628;50.104;14.614;2023-08-12T03:57:25;26;25;
75946;PMS5003;64628;50.104;14.614;2023-08-12T03:59:51;37;34;
75946;PMS5003;64628;50.104;14.614;2023-08-12T04:02:16;36;32;
75946;PMS5003;64628;50.104;14.614;2023-08-12T04:04:41;37;36;
75946;PMS5003;64628;50.104;14.614;2023-08-12T04:07:07;39;38;
75946;PMS5003;64628;50.104;14.614;2023-08-12T04:09:33;44;42;
75946;PMS5003;64628;50.104;14.614;2023-08-12T04:11:58;41;36;
75946;PMS5003;64628;50.104;14.614;2023-08-12T04:14:23;42;39;
75946;PMS5003;64628;50.104;14.614;2023-08-12T04:16:49;37;34;
75946;PMS5003;64628;50.104;14.614;2023-08-12T04:19:15;33;32;
75946;PMS5003;64628;50.104;14.614;2023-08-12T04:21:41;38;35;
75946;PMS5003;64628;50.104;14.614;2023-08-12T04:24:07;40;33;
75946;PMS5003;64628;50.104;14.614;2023-08-12T04:26:31;40;33;
75946;PMS5003;64628;50.104;14.614;2023-08-12T04:28:57;41;38;
75946;PMS5003;64628;50.104;14.614;2023-08-12T04:31:22;36;35;
75946;PMS5003;64628;50.104;14.614;2023-08-12T04:33:48;33;33;
75946;PMS5003;64628;50.104;14.614;2023-08-12T04:36:14;35;34;
75946;PMS5003;64628;50.104;14.614;2023-08-12T04:38:40;32;32;
75946;PMS5003;64628;50.104;14.614;2023-08-12T04:41:05;34;30;
75946;PMS5003;64628;50.104;14.614;2023-08-12T04:43:30;33;31;
75946;PMS5003;64628;50.104;14.614;2023-08-12T04:45:55;36;32;
75946;PMS5003;64628;50.104;14.614;2023-08-12T04:48:21;40;40;
75946;PMS5003;64628;50.104;14.614;2023-08-12T04:50:47;34;34;
75946;PMS5003;64628;50.104;14.614;2023-08-12T04:53:12;40;38;
75946;PMS5003;64628;50.104;14.614;2023-08-12T04:55:38;37;36;
75946;PMS5003;64628;50.104;14.614;2023-08-12T04:58:03;32;29;
75946;PMS5003;64628;50.104;14.614;2023-08-12T05:00:29;36;34;
75946;PMS5003;64628;50.104;14.614;2023-08-12T05:02:54;46;40;
75946;PMS5003;64628;50.104;14.614;2023-08-12T05:05:20;35;35;
75946;PMS5003;64628;50.104;14.614;2023-08-12T05:07:45;38;37;
75946;PMS5003;64628;50.104;14.614;2023-08-12T05:10:11;39;39;
75946;PMS5003;64628;50.104;14.614;2023-08-12T05:12:36;54;50;
75946;PMS5003;64628;50.104;14.614;2023-08-12T05:15:02;65;61;
75946;PMS5003;64628;50.104;14.614;2023-08-12T05:17:27;59;48;
75946;PMS5003;64628;50.104;14.614;2023-08-12T05:19:53;84;78;
75946;PMS5003;64628;50.104;14.614;2023-08-12T05:22:18;56;51;
75946;PMS5003;64628;50.104;14.614;2023-08-12T05:24:43;59;58;
75946;PMS5003;64628;50.104;14.614;2023-08-12T05:27:09;65;64;
75946;PMS5003;64628;50.104;14.614;2023-08-12T05:29:34;60;55;
75946;PMS5003;64628;50.104;14.614;2023-08-12T05:31:59;63;61;
75946;PMS5003;64628;50.104;14.614;2023-08-12T05:34:24;62;57;
75946;PMS5003;64628;50.104;14.614;2023-08-12T05:36:50;83;74;
75946;PMS5003;64628;50.104;14.614;2023-08-12T05:39:16;74;70;
75946;PMS5003;64628;50.104;14.614;2023-08-12T05:41:41;75;71;
75946;PMS5003;64628;50.104;14.614;2023-08-12T05:44:06;73;69;
75946;PMS5003;64628;50.104;14.614;2023-08-12T05:46:31;73;71;
75946;PMS5003;64628;50.104;14.614;2023-08-12T05:48:56;78;74;
75946;PMS5003;64628;50.104;14.614;2023-08-12T05:51:22;74;68;
75946;PMS5003;64628;50.104;14.614;2023-08-12T05:53:47;96;85;
75946;PMS5003;64628;50.104;14.614;2023-08-12T05:56:12;79;73;
75946;PMS5003;64628;50.104;14.614;2023-08-12T05:58:38;83;75;
75946;PMS5003;64628;50.104;14.614;2023-08-12T06:01:03;46;46;
75946;PMS5003;64628;50.104;14.614;2023-08-12T06:03:29;46;42;
75946;PMS5003;64628;50.104;14.614;2023-08-12T06:05:55;29;27;
75946;PMS5003;64628;50.104;14.614;2023-08-12T06:08:20;26;26;
75946;PMS5003;64628;50.104;14.614;2023-08-12T06:10:45;21;21;
75946;PMS5003;64628;50.104;14.614;2023-08-12T06:13:11;23;22;
75946;PMS5003;64628;50.104;14.614;2023-08-12T06:15:36;23;23;
75946;PMS5003;64628;50.104;14.614;2023-08-12T06:18:02;23;21;
75946;PMS5003;64628;50.104;14.614;2023-08-12T06:20:27;21;21;
75946;PMS5003;64628;50.104;14.614;2023-08-12T06:22:53;25;25;
75946;PMS5003;64628;50.104;14.614;2023-08-12T06:25:19;19;19;
75946;PMS5003;64628;50.104;14.614;2023-08-12T06:27:44;18;18;
75946;PMS5003;64628;50.104;14.614;2023-08-12T06:30:09;18;16;
75946;PMS5003;64628;50.104;14.614;2023-08-12T06:32:35;15;15;
75946;PMS5003;64628;50.104;14.614;2023-08-12T06:35:00;14;14;
75946;PMS5003;64628;50.104;14.614;2023-08-12T06:37:26;19;19;
75946;PMS5003;64628;50.104;14.614;2023-08-12T06:39:51;13;13;
75946;PMS5003;64628;50.104;14.614;2023-08-12T06:42:17;16;16;
75946;PMS5003;64628;50.104;14.614;2023-08-12T06:44:43;17;17;
75946;PMS5003;64628;50.104;14.614;2023-08-12T06:47:09;15;14;
75946;PMS5003;64628;50.104;14.614;2023-08-12T06:49:34;12;12;
75946;PMS5003;64628;50.104;14.614;2023-08-12T06:52:00;9;9;
75946;PMS5003;64628;50.104;14.614;2023-08-12T06:54:25;18;16;
75946;PMS5003;64628;50.104;14.614;2023-08-12T06:56:50;22;22;
75946;PMS5003;64628;50.104;14.614;2023-08-12T06:59:16;16;13;
75946;PMS5003;64628;50.104;14.614;2023-08-12T07:01:42;11;11;
75946;PMS5003;64628;50.104;14.614;2023-08-12T07:04:07;11;11;
75946;PMS5003;64628;50.104;14.614;2023-08-12T07:06:32;17;14;
75946;PMS5003;64628;50.104;14.614;2023-08-12T07:08:58;12;12;
75946;PMS5003;64628;50.104;14.614;2023-08-12T07:11:23;12;11;
75946;PMS5003;64628;50.104;14.614;2023-08-12T07:13:49;10;10;
75946;PMS5003;64628;50.104;14.614;2023-08-12T07:16:14;9;9;
75946;PMS5003;64628;50.104;14.614;2023-08-12T07:18:39;11;11;
75946;PMS5003;64628;50.104;14.614;2023-08-12T07:21:05;16;13;
75946;PMS5003;64628;50.104;14.614;2023-08-12T07:23:30;11;10;
75946;PMS5003;64628;50.104;14.614;2023-08-12T07:25:55;14;14;
75946;PMS5003;64628;50.104;14.614;2023-08-12T07:28:21;13;13;
75946;PMS5003;64628;50.104;14.614;2023-08-12T07:30:47;11;11;
75946;PMS5003;64628;50.104;14.614;2023-08-12T07:33:12;12;12;
75946;PMS5003;64628;50.104;14.614;2023-08-12T07:35:37;15;13;
75946;PMS5003;64628;50.104;14.614;2023-08-12T07:38:02;13;12;
75946;PMS5003;64628;50.104;14.614;2023-08-12T07:40:27;10;10;
75946;PMS5003;64628;50.104;14.614;2023-08-12T07:42:52;13;12;
75946;PMS5003;64628;50.104;14.614;2023-08-12T07:45:18;18;15;
75946;PMS5003;64628;50.104;14.614;2023-08-12T07:47:43;11;11;
75946;PMS5003;64628;50.104;14.614;2023-08-12T07:50:08;14;14;
75946;PMS5003;64628;50.104;14.614;2023-08-12T07:52:34;11;10;
75946;PMS5003;64628;50.104;14.614;2023-08-12T07:54:59;12;12;
75946;PMS5003;64628;50.104;14.614;2023-08-12T07:57:24;11;11;
75946;PMS5003;64628;50.104;14.614;2023-08-12T07:59:51;13;13;
75946;PMS5003;64628;50.104;14.614;2023-08-12T08:02:15;13;13;
75946;PMS5003;64628;50.104;14.614;2023-08-12T08:04:40;11;11;
75946;PMS5003;64628;50.104;14.614;2023-08-12T08:07:06;12;11;
75946;PMS5003;64628;50.104;14.614;2023-08-12T08:09:31;12;10;
75946;PMS5003;64628;50.104;14.614;2023-08-12T08:11:56;13;11;
75946;PMS5003;64628;50.104;14.614;2023-08-12T08:14:22;13;13;
75946;PMS5003;64628;50.104;14.614;2023-08-12T08:16:48;13;13;
75946;PMS5003;64628;50.104;14.614;2023-08-12T08:19:13;14;14;
75946;PMS5003;64628;50.104;14.614;2023-08-12T08:21:38;13;12;
75946;PMS5003;64628;50.104;14.614;2023-08-12T08:24:04;12;12;
75946;PMS5003;64628;50.104;14.614;2023-08-12T08:26:30;17;16;
75946;PMS5003;64628;50.104;14.614;2023-08-12T08:28:55;13;12;
75946;PMS5003;64628;50.104;14.614;2023-08-12T08:31:21;13;13;
75946;PMS5003;64628;50.104;14.614;2023-08-12T08:33:47;15;14;
75946;PMS5003;64628;50.104;14.614;2023-08-12T08:36:13;17;17;
75946;PMS5003;64628;50.104;14.614;2023-08-12T08:38:38;16;14;
75946;PMS5003;64628;50.104;14.614;2023-08-12T08:41:03;14;14;
75946;PMS5003;64628;50.104;14.614;2023-08-12T08:43:29;17;15;
75946;PMS5003;64628;50.104;14.614;2023-08-12T08:45:54;17;16;
75946;PMS5003;64628;50.104;14.614;2023-08-12T08:48:21;15;14;
75946;PMS5003;64628;50.104;14.614;2023-08-12T08:50:45;14;14;
75946;PMS5003;64628;50.104;14.614;2023-08-12T08:53:11;16;16;
75946;PMS5003;64628;50.104;14.614;2023-08-12T08:55:37;16;15;
75946;PMS5003;64628;50.104;14.614;2023-08-12T08:58:02;18;16;
75946;PMS5003;64628;50.104;14.614;2023-08-12T09:00:28;16;15;
75946;PMS5003;64628;50.104;14.614;2023-08-12T09:02:53;14;14;
75946;PMS5003;64628;50.104;14.614;2023-08-12T09:05:19;23;20;
75946;PMS5003;64628;50.104;14.614;2023-08-12T09:07:44;17;14;
75946;PMS5003;64628;50.104;14.614;2023-08-12T09:10:09;16;16;
75946;PMS5003;64628;50.104;14.614;2023-08-12T09:12:34;15;14;
75946;PMS5003;64628;50.104;14.614;2023-08-12T09:15:00;17;16;
75946;PMS5003;64628;50.104;14.614;2023-08-12T09:17:25;20;19;
75946;PMS5003;64628;50.104;14.614;2023-08-12T09:19:51;17;16;
75946;PMS5003;64628;50.104;14.614;2023-08-12T09:22:17;19;18;
75946;PMS5003;64628;50.104;14.614;2023-08-12T09:24:42;82;77;
75946;PMS5003;64628;50.104;14.614;2023-08-12T09:27:07;289;268;
75946;PMS5003;64628;50.104;14.614;2023-08-12T09:29:34;335;305;
75946;PMS5003;64628;50.104;14.614;2023-08-12T09:34:23;78;76;
75946;PMS5003;64628;50.104;14.614;2023-08-12T09:36:49;242;229;
75946;PMS5003;64628;50.104;14.614;2023-08-12T09:39:14;202;189;
75946;PMS5003;64628;50.104;14.614;2023-08-12T09:41:39;77;72;
75946;PMS5003;64628;50.104;14.614;2023-08-12T09:44:05;45;43;
75946;PMS5003;64628;50.104;14.614;2023-08-12T09:46:32;204;202;
75946;PMS5003;64628;50.104;14.614;2023-08-12T09:48:55;32;32;
75946;PMS5003;64628;50.104;14.614;2023-08-12T09:51:20;48;45;
75946;PMS5003;64628;50.104;14.614;2023-08-12T09:53:47;32;31;
75946;PMS5003;64628;50.104;14.614;2023-08-12T09:56:11;36;36;
75946;PMS5003;64628;50.104;14.614;2023-08-12T09:58:37;20;20;
75946;PMS5003;64628;50.104;14.614;2023-08-12T10:01:03;17;17;
75946;PMS5003;64628;50.104;14.614;2023-08-12T10:03:28;17;17;
75946;PMS5003;64628;50.104;14.614;2023-08-12T10:05:53;33;30;
75946;PMS5003;64628;50.104;14.614;2023-08-12T10:08:19;21;20;
75946;PMS5003;64628;50.104;14.614;2023-08-12T10:10:45;25;25;
75946;PMS5003;64628;50.104;14.614;2023-08-12T10:13:10;15;15;
75946;PMS5003;64628;50.104;14.614;2023-08-12T10:15:36;27;27;
75946;PMS5003;64628;50.104;14.614;2023-08-12T10:18:01;16;15;
75946;PMS5003;64628;50.104;14.614;2023-08-12T10:20:26;17;17;
75946;PMS5003;64628;50.104;14.614;2023-08-12T10:22:52;14;13;
75946;PMS5003;64628;50.104;14.614;2023-08-12T10:25:18;19;15;
75946;PMS5003;64628;50.104;14.614;2023-08-12T10:27:43;15;13;
75946;PMS5003;64628;50.104;14.614;2023-08-12T10:30:08;34;32;
75946;PMS5003;64628;50.104;14.614;2023-08-12T10:32:34;14;14;
75946;PMS5003;64628;50.104;14.614;2023-08-12T10:35:00;9;9;
75946;PMS5003;64628;50.104;14.614;2023-08-12T10:37:25;8;8;
75946;PMS5003;64628;50.104;14.614;2023-08-12T10:39:51;8;8;
75946;PMS5003;64628;50.104;14.614;2023-08-12T10:47:07;8;6;
75946;PMS5003;64628;50.104;14.614;2023-08-12T10:49:37;9;8;
75946;PMS5003;64628;50.104;14.614;2023-08-12T10:51:58;8;8;
75946;PMS5003;64628;50.104;14.614;2023-08-12T10:54:24;9;8;
75946;PMS5003;64628;50.104;14.614;2023-08-12T11:01:40;6;6;
75946;PMS5003;64628;50.104;14.614;2023-08-12T11:06:31;10;9;
75946;PMS5003;64628;50.104;14.614;2023-08-12T11:08:56;7;7;
75946;PMS5003;64628;50.104;14.614;2023-08-12T11:11:23;13;13;
75946;PMS5003;64628;50.104;14.614;2023-08-12T11:13:52;10;9;
75946;PMS5003;64628;50.104;14.614;2023-08-12T11:16:13;6;5;
75946;PMS5003;64628;50.104;14.614;2023-08-12T11:18:39;6;6;
75946;PMS5003;64628;50.104;14.614;2023-08-12T11:21:04;6;5;
75946;PMS5003;64628;50.104;14.614;2023-08-12T11:23:30;5;5;
75946;PMS5003;64628;50.104;14.614;2023-08-12T11:25:55;6;5;
75946;PMS5003;64628;50.104;14.614;2023-08-12T11:28:21;7;7;
75946;PMS5003;64628;50.104;14.614;2023-08-12T11:30:46;4;4;
75946;PMS5003;64628;50.104;14.614;2023-08-12T11:33:12;6;6;
75946;PMS5003;64628;50.104;14.614;2023-08-12T11:35:37;3;3;
75946;PMS5003;64628;50.104;14.614;2023-08-12T11:38:03;6;6;
75946;PMS5003;64628;50.104;14.614;2023-08-12T11:40:28;5;5;
75946;PMS5003;64628;50.104;14.614;2023-08-12T11:42:54;5;5;
75946;PMS5003;64628;50.104;14.614;2023-08-12T11:47:45;5;5;
75946;PMS5003;64628;50.104;14.614;2023-08-12T11:50:11;7;6;
75946;PMS5003;64628;50.104;14.614;2023-08-12T11:52:36;7;6;
75946;PMS5003;64628;50.104;14.614;2023-08-12T11:55:01;6;6;
75946;PMS5003;64628;50.104;14.614;2023-08-12T11:57:26;4;4;
75946;PMS5003;64628;50.104;14.614;2023-08-12T11:59:52;6;4;
75946;PMS5003;64628;50.104;14.614;2023-08-12T12:02:17;6;6;
75946;PMS5003;64628;50.104;14.614;2023-08-12T12:04:43;6;5;
75946;PMS5003;64628;50.104;14.614;2023-08-12T12:09:34;7;6;
75946;PMS5003;64628;50.104;14.614;2023-08-12T12:11:59;7;5;
75946;PMS5003;64628;50.104;14.614;2023-08-12T12:14:25;7;5;
75946;PMS5003;64628;50.104;14.614;2023-08-12T12:16:50;7;7;
75946;PMS5003;64628;50.104;14.614;2023-08-12T12:19:17;7;5;
75946;PMS5003;64628;50.104;14.614;2023-08-12T12:21:41;6;6;
75946;PMS5003;64628;50.104;14.614;2023-08-12T12:24:07;7;6;
75946;PMS5003;64628;50.104;14.614;2023-08-12T12:26:32;6;6;
75946;PMS5003;64628;50.104;14.614;2023-08-12T12:28:58;6;5;
75946;PMS5003;64628;50.104;14.614;2023-08-12T12:31:23;7;7;
75946;PMS5003;64628;50.104;14.614;2023-08-12T12:33:48;8;7;
75946;PMS5003;64628;50.104;14.614;2023-08-12T12:36:14;7;7;
75946;PMS5003;64628;50.104;14.614;2023-08-12T12:38:39;5;5;
75946;PMS5003;64628;50.104;14.614;2023-08-12T12:41:04;6;6;
75946;PMS5003;64628;50.104;14.614;2023-08-12T12:43:30;7;6;
75946;PMS5003;64628;50.104;14.614;2023-08-12T12:45:55;6;6;
75946;PMS5003;64628;50.104;14.614;2023-08-12T12:48:21;5;5;
75946;PMS5003;64628;50.104;14.614;2023-08-12T12:50:46;5;5;
75946;PMS5003;64628;50.104;14.614;2023-08-12T12:53:12;6;5;
75946;PMS5003;64628;50.104;14.614;2023-08-12T12:55:38;5;5;
75946;PMS5003;64628;50.104;14.614;2023-08-12T12:58:03;6;5;
75946;PMS5003;64628;50.104;14.614;2023-08-12T13:00:28;4;4;
75946;PMS5003;64628;50.104;14.614;2023-08-12T13:02:54;4;4;
75946;PMS5003;64628;50.104;14.614;2023-08-12T13:05:19;7;5;
75946;PMS5003;64628;50.104;14.614;2023-08-12T13:07:45;4;4;
75946;PMS5003;64628;50.104;14.614;2023-08-12T13:10:11;14;14;
75946;PMS5003;64628;50.104;14.614;2023-08-12T13:12:36;4;4;
75946;PMS5003;64628;50.104;14.614;2023-08-12T13:15:01;5;3;
75946;PMS5003;64628;50.104;14.614;2023-08-12T13:17:27;6;6;
75946;PMS5003;64628;50.104;14.614;2023-08-12T13:19:52;5;4;
75946;PMS5003;64628;50.104;14.614;2023-08-12T13:22:18;5;5;
75946;PMS5003;64628;50.104;14.614;2023-08-12T13:24:43;3;3;
75946;PMS5003;64628;50.104;14.614;2023-08-12T13:27:09;12;8;
75946;PMS5003;64628;50.104;14.614;2023-08-12T13:29:34;5;5;
75946;PMS5003;64628;50.104;14.614;2023-08-12T13:32:00;5;4;
75946;PMS5003;64628;50.104;14.614;2023-08-12T13:34:25;5;5;
75946;PMS5003;64628;50.104;14.614;2023-08-12T13:36:51;5;5;
75946;PMS5003;64628;50.104;14.614;2023-08-12T13:39:16;3;2;
75946;PMS5003;64628;50.104;14.614;2023-08-12T13:41:42;4;4;
75946;PMS5003;64628;50.104;14.614;2023-08-12T13:44:08;4;4;
75946;PMS5003;64628;50.104;14.614;2023-08-12T13:46:33;4;3;
75946;PMS5003;64628;50.104;14.614;2023-08-12T13:48:59;5;4;
75946;PMS5003;64628;50.104;14.614;2023-08-12T13:51:24;6;4;
75946;PMS5003;64628;50.104;14.614;2023-08-12T13:53:50;3;3;
75946;PMS5003;64628;50.104;14.614;2023-08-12T13:56:15;4;4;
75946;PMS5003;64628;50.104;14.614;2023-08-12T13:58:41;5;5;
75946;PMS5003;64628;50.104;14.614;2023-08-12T14:01:06;5;5;
75946;PMS5003;64628;50.104;14.614;2023-08-12T14:03:32;3;3;
75946;PMS5003;64628;50.104;14.614;2023-08-12T14:05:57;4;3;
75946;PMS5003;64628;50.104;14.614;2023-08-12T14:08:23;4;4;
75946;PMS5003;64628;50.104;14.614;2023-08-12T14:10:48;6;4;
75946;PMS5003;64628;50.104;14.614;2023-08-12T14:13:14;7;4;
75946;PMS5003;64628;50.104;14.614;2023-08-12T14:15:40;3;3;
75946;PMS5003;64628;50.104;14.614;2023-08-12T14:18:05;5;5;
75946;PMS5003;64628;50.104;14.614;2023-08-12T14:20:30;4;4;
75946;PMS5003;64628;50.104;14.614;2023-08-12T14:22:56;5;5;
75946;PMS5003;64628;50.104;14.614;2023-08-12T14:25:21;4;4;
75946;PMS5003;64628;50.104;14.614;2023-08-12T14:27:47;6;5;
75946;PMS5003;64628;50.104;14.614;2023-08-12T14:30:12;5;5;
75946;PMS5003;64628;50.104;14.614;2023-08-12T14:32:38;3;2;
75946;PMS5003;64628;50.104;14.614;2023-08-12T14:35:03;5;5;
75946;PMS5003;64628;50.104;14.614;2023-08-12T14:37:29;4;4;
75946;PMS5003;64628;50.104;14.614;2023-08-12T14:39:54;6;4;
75946;PMS5003;64628;50.104;14.614;2023-08-12T14:42:20;7;4;
75946;PMS5003;64628;50.104;14.614;2023-08-12T14:44:45;7;4;
75946;PMS5003;64628;50.104;14.614;2023-08-12T14:47:11;4;3;
75946;PMS5003;64628;50.104;14.614;2023-08-12T14:49:36;2;2;
75946;PMS5003;64628;50.104;14.614;2023-08-12T14:52:02;7;5;
75946;PMS5003;64628;50.104;14.614;2023-08-12T14:54:27;3;3;
75946;PMS5003;64628;50.104;14.614;2023-08-12T14:56:53;6;3;
75946;PMS5003;64628;50.104;14.614;2023-08-12T14:59:18;3;3;
75946;PMS5003;64628;50.104;14.614;2023-08-12T15:01:45;3;3;
75946;PMS5003;64628;50.104;14.614;2023-08-12T15:04:09;2;2;
75946;PMS5003;64628;50.104;14.614;2023-08-12T15:06:35;3;3;
75946;PMS5003;64628;50.104;14.614;2023-08-12T15:09:00;3;3;
75946;PMS5003;64628;50.104;14.614;2023-08-12T15:11:26;3;3;
75946;PMS5003;64628;50.104;14.614;2023-08-12T15:13:51;4;4;
75946;PMS5003;64628;50.104;14.614;2023-08-12T15:16:18;4;4;
75946;PMS5003;64628;50.104;14.614;2023-08-12T15:18:42;6;4;
75946;PMS5003;64628;50.104;14.614;2023-08-12T15:21:08;5;4;
75946;PMS5003;64628;50.104;14.614;2023-08-12T15:23:33;3;3;
75946;PMS5003;64628;50.104;14.614;2023-08-12T15:26:00;3;3;
75946;PMS5003;64628;50.104;14.614;2023-08-12T15:28:25;2;2;
75946;PMS5003;64628;50.104;14.614;2023-08-12T15:30:50;3;3;
75946;PMS5003;64628;50.104;14.614;2023-08-12T15:33:16;2;2;
75946;PMS5003;64628;50.104;14.614;2023-08-12T15:35:41;3;3;
75946;PMS5003;64628;50.104;14.614;2023-08-12T15:38:06;5;4;
75946;PMS5003;64628;50.104;14.614;2023-08-12T15:40:33;4;3;
75946;PMS5003;64628;50.104;14.614;2023-08-12T15:42:58;3;3;
75946;PMS5003;64628;50.104;14.614;2023-08-12T15:45:23;4;3;
75946;PMS5003;64628;50.104;14.614;2023-08-12T15:47:49;2;2;
75946;PMS5003;64628;50.104;14.614;2023-08-12T15:50:15;4;3;
75946;PMS5003;64628;50.104;14.614;2023-08-12T15:52:40;4;3;
75946;PMS5003;64628;50.104;14.614;2023-08-12T15:55:05;4;3;
75946;PMS5003;64628;50.104;14.614;2023-08-12T15:57:32;3;3;
75946;PMS5003;64628;50.104;14.614;2023-08-12T15:59:56;21;21;
75946;PMS5003;64628;50.104;14.614;2023-08-12T16:02:21;13;13;
75946;PMS5003;64628;50.104;14.614;2023-08-12T16:04:47;7;7;
75946;PMS5003;64628;50.104;14.614;2023-08-12T16:07:12;6;6;
75946;PMS5003;64628;50.104;14.614;2023-08-12T16:09:38;5;5;
75946;PMS5003;64628;50.104;14.614;2023-08-12T16:12:04;4;4;
75946;PMS5003;64628;50.104;14.614;2023-08-12T16:14:29;9;7;
75946;PMS5003;64628;50.104;14.614;2023-08-12T16:16:54;6;6;
75946;PMS5003;64628;50.104;14.614;2023-08-12T16:19:20;4;4;